Domov               UVHVVR             MKGP            O straneh              
ZDRAVSTVENO VARSTVO RASTLIN
  MREŽA AGROMET. POSTAJ
 ► PROGNOSTIČNA OBVESTILA
AGROMETEOROLOŠKI PODATKI -
ARSO
OBVLADOVANJE TVEGANJ ZARADI
NEUGODNIH VREMENSKIH RAZMER
  ► NARAVNE NESREČE
  ► SUŠA/MOČA
  ► NAMAKANJE
  ► ŽLED (gozdarstvo)
KARTOGRAFSKI PRIKAZI
SPLETNE POVEZAVE
PROJEKTI IN PUBLIKACIJE

AGROMETEOROLOŠKA MREŽA: VREMENSKE POSTAJE IN FENOLOŠKA OPAZOVANJA

Pregled podatkov za lokacijo Drenov grič, meteorološka postaja 39324

Pregled senzorjev na lokaciji

ID Ime Zadnja
vrednost
Datum
zadnje
spremembe
Tip
senzorja
3811 Padavine (mm) 0 mm 23.7.2018 05:00 Rain-O-Matic
3813 Relativna vlaga 2 m (% RH) 99,76 % RH 23.7.2018 05:00 50YA
3812 Temperatura 2 m (°C) 16,58 °C 23.7.2018 05:00 50YA

Pregled podatkov zadnjih 24 ur

Zap.
št.
Datum in čas Drenov grič
Padavine Relativna
vlaga
2
m
Temperatura
2
m
1 23.7.2018 05:30
2 23.7.2018 05:00
3 23.7.2018 04:30
4 23.7.2018 04:00 0 99,8 16,6
5 23.7.2018 03:30 0 99,7 15,9
6 23.7.2018 03:00 0 99,2 15,2
7 23.7.2018 02:30 0 99,2 16,1
8 23.7.2018 02:00 0 99,1 16,5
9 23.7.2018 01:30 0 99,2 16,7
10 23.7.2018 01:00 0 99,1 16,8
11 23.7.2018 00:30 0 99 16,8
12 23.7.2018 00:00 0 98,9 16,8
13 22.7.2018 23:30 0 98,7 16,8
14 22.7.2018 23:00 0 98,5 16,9
15 22.7.2018 22:30 0 98,4 17
16 22.7.2018 22:00 0 98,3 17,1
17 22.7.2018 21:30 0 98 16,9
18 22.7.2018 21:00 0 97,3 17
19 22.7.2018 20:30 0 96,6 17,4
20 22.7.2018 20:00 0 95,5 17,8
21 22.7.2018 19:30 0 93,7 18,3
22 22.7.2018 19:00 0 90,4 18,9
23 22.7.2018 18:30 0 87,2 19,4
24 22.7.2018 18:00 0 85,2 19,5
25 22.7.2018 17:30 0,2 86,2 18,9
26 22.7.2018 17:00 0 81,2 18,8
27 22.7.2018 16:30 0 72,6 20,2
28 22.7.2018 16:00 0 70,2 23,9
29 22.7.2018 15:30 0 65,6 25,6
30 22.7.2018 15:00 0 64,5 26
31 22.7.2018 14:30 0 61,8 26
32 22.7.2018 14:00 0 60,2 26
33 22.7.2018 13:30 0 57,9 26,3
34 22.7.2018 13:00 0 57,5 27,2
35 22.7.2018 12:30 0 59,3 27,6
36 22.7.2018 12:00 0 65,8 26,2
37 22.7.2018 11:30 0 69 24,9
38 22.7.2018 11:00 0 70,2 24,5
39 22.7.2018 10:30 0 77,9 22,3
40 22.7.2018 10:00 0 79,7 21,7
41 22.7.2018 09:30 0 81 21,3
42 22.7.2018 09:00 0 85,9 20,4
43 22.7.2018 08:30 0 96,3 19,8
44 22.7.2018 08:00 0 99,6 18,8
45 22.7.2018 07:30 0 99,9 17,9
46 22.7.2018 07:00 0 99,9 17,6
47 22.7.2018 06:30 0 99,9 17,2
48 22.7.2018 06:00 0 99,9 17,1
© 2011 Ministrstvo za kmetijstvo, gozdarstvo in prehrano. Vse pravice pridržane.